sensor_id;sensor_type;location;lat;lon;timestamp;temperature;humidity
14252;DHT22;7210;51.502;10.722;2023-05-19T00:01:12;8.40;1.00
14252;DHT22;7210;51.502;10.722;2023-05-19T00:03:50;8.40;1.00
14252;DHT22;7210;51.502;10.722;2023-05-19T00:06:23;8.30;1.00
14252;DHT22;7210;51.502;10.722;2023-05-19T00:08:58;8.30;1.00
14252;DHT22;7210;51.502;10.722;2023-05-19T00:11:27;8.20;99.90
14252;DHT22;7210;51.502;10.722;2023-05-19T00:13:57;8.20;99.90
14252;DHT22;7210;51.502;10.722;2023-05-19T00:16:30;8.20;99.90
14252;DHT22;7210;51.502;10.722;2023-05-19T00:19:00;8.10;99.90
14252;DHT22;7210;51.502;10.722;2023-05-19T00:21:42;8.00;99.90
14252;DHT22;7210;51.502;10.722;2023-05-19T00:24:09;8.00;99.90
14252;DHT22;7210;51.502;10.722;2023-05-19T00:26:36;7.90;99.90
14252;DHT22;7210;51.502;10.722;2023-05-19T00:29:05;7.90;99.90
14252;DHT22;7210;51.502;10.722;2023-05-19T00:31:33;7.90;99.90
14252;DHT22;7210;51.502;10.722;2023-05-19T00:34:07;7.90;99.90
14252;DHT22;7210;51.502;10.722;2023-05-19T00:36:35;7.90;99.90
14252;DHT22;7210;51.502;10.722;2023-05-19T00:39:06;7.90;99.90
14252;DHT22;7210;51.502;10.722;2023-05-19T00:41:36;7.90;99.90
14252;DHT22;7210;51.502;10.722;2023-05-19T00:44:03;7.90;99.90
14252;DHT22;7210;51.502;10.722;2023-05-19T00:46:32;7.90;99.90
14252;DHT22;7210;51.502;10.722;2023-05-19T00:48:59;7.90;99.90
14252;DHT22;7210;51.502;10.722;2023-05-19T00:51:43;7.90;99.90
14252;DHT22;7210;51.502;10.722;2023-05-19T00:54:12;7.90;99.90
14252;DHT22;7210;51.502;10.722;2023-05-19T00:56:39;7.80;99.90
14252;DHT22;7210;51.502;10.722;2023-05-19T00:59:07;7.80;99.90
14252;DHT22;7210;51.502;10.722;2023-05-19T01:01:53;7.90;99.90
14252;DHT22;7210;51.502;10.722;2023-05-19T01:04:21;7.90;99.90
14252;DHT22;7210;51.502;10.722;2023-05-19T01:06:51;7.90;99.90
14252;DHT22;7210;51.502;10.722;2023-05-19T01:09:24;7.90;99.90
14252;DHT22;7210;51.502;10.722;2023-05-19T01:11:54;8.00;99.90
14252;DHT22;7210;51.502;10.722;2023-05-19T01:14:24;7.90;99.90
14252;DHT22;7210;51.502;10.722;2023-05-19T01:16:57;7.90;99.90
14252;DHT22;7210;51.502;10.722;2023-05-19T01:19:49;7.90;99.90
14252;DHT22;7210;51.502;10.722;2023-05-19T01:23:04;7.90;99.90
14252;DHT22;7210;51.502;10.722;2023-05-19T01:26:15;8.00;99.90
14252;DHT22;7210;51.502;10.722;2023-05-19T01:29:27;7.90;99.90
14252;DHT22;7210;51.502;10.722;2023-05-19T01:32:08;8.00;99.90
14252;DHT22;7210;51.502;10.722;2023-05-19T01:34:42;8.00;99.90
14252;DHT22;7210;51.502;10.722;2023-05-19T01:37:12;8.00;99.90
14252;DHT22;7210;51.502;10.722;2023-05-19T01:39:43;8.00;99.90
14252;DHT22;7210;51.502;10.722;2023-05-19T01:42:13;8.00;99.90
14252;DHT22;7210;51.502;10.722;2023-05-19T01:44:42;7.90;99.90
14252;DHT22;7210;51.502;10.722;2023-05-19T01:47:12;7.90;99.90
14252;DHT22;7210;51.502;10.722;2023-05-19T01:49:42;7.90;99.90
14252;DHT22;7210;51.502;10.722;2023-05-19T01:52:09;7.90;99.90
14252;DHT22;7210;51.502;10.722;2023-05-19T01:54:36;7.80;99.90
14252;DHT22;7210;51.502;10.722;2023-05-19T01:57:11;7.80;99.90
14252;DHT22;7210;51.502;10.722;2023-05-19T01:59:51;7.80;99.90
14252;DHT22;7210;51.502;10.722;2023-05-19T02:02:47;7.80;99.90
14252;DHT22;7210;51.502;10.722;2023-05-19T02:05:29;7.80;99.90
14252;DHT22;7210;51.502;10.722;2023-05-19T02:09:02;7.70;99.90
14252;DHT22;7210;51.502;10.722;2023-05-19T02:11:35;7.70;99.90
14252;DHT22;7210;51.502;10.722;2023-05-19T02:14:13;7.60;99.90
14252;DHT22;7210;51.502;10.722;2023-05-19T02:19:53;7.70;99.90
14252;DHT22;7210;51.502;10.722;2023-05-19T02:22:20;7.70;99.90
14252;DHT22;7210;51.502;10.722;2023-05-19T02:24:48;7.70;99.90
14252;DHT22;7210;51.502;10.722;2023-05-19T02:27:16;7.60;99.90
14252;DHT22;7210;51.502;10.722;2023-05-19T02:29:43;7.70;99.90
14252;DHT22;7210;51.502;10.722;2023-05-19T02:32:11;7.70;99.90
14252;DHT22;7210;51.502;10.722;2023-05-19T02:34:39;7.70;99.90
14252;DHT22;7210;51.502;10.722;2023-05-19T02:37:08;7.60;99.90
14252;DHT22;7210;51.502;10.722;2023-05-19T02:39:35;7.70;99.90
14252;DHT22;7210;51.502;10.722;2023-05-19T02:42:03;7.80;99.90
14252;DHT22;7210;51.502;10.722;2023-05-19T02:44:31;7.80;99.90
14252;DHT22;7210;51.502;10.722;2023-05-19T02:47:13;7.80;99.90
14252;DHT22;7210;51.502;10.722;2023-05-19T02:49:40;7.70;99.90
14252;DHT22;7210;51.502;10.722;2023-05-19T02:52:14;7.70;99.90
14252;DHT22;7210;51.502;10.722;2023-05-19T02:54:55;7.60;99.90
14252;DHT22;7210;51.502;10.722;2023-05-19T02:57:22;7.50;99.90
14252;DHT22;7210;51.502;10.722;2023-05-19T02:59:49;7.50;99.90
14252;DHT22;7210;51.502;10.722;2023-05-19T03:02:16;7.50;99.90
14252;DHT22;7210;51.502;10.722;2023-05-19T03:04:43;7.60;99.90
14252;DHT22;7210;51.502;10.722;2023-05-19T03:07:11;7.60;99.90
14252;DHT22;7210;51.502;10.722;2023-05-19T03:09:44;7.50;99.90
14252;DHT22;7210;51.502;10.722;2023-05-19T03:12:11;7.60;99.90
14252;DHT22;7210;51.502;10.722;2023-05-19T03:14:39;7.60;99.90
14252;DHT22;7210;51.502;10.722;2023-05-19T03:17:06;7.60;99.90
14252;DHT22;7210;51.502;10.722;2023-05-19T03:19:34;7.60;99.90
14252;DHT22;7210;51.502;10.722;2023-05-19T03:22:02;7.60;99.90
14252;DHT22;7210;51.502;10.722;2023-05-19T03:24:30;7.50;99.90
14252;DHT22;7210;51.502;10.722;2023-05-19T03:26:58;7.50;99.90
14252;DHT22;7210;51.502;10.722;2023-05-19T03:29:37;7.40;99.90
14252;DHT22;7210;51.502;10.722;2023-05-19T03:32:04;7.40;99.90
14252;DHT22;7210;51.502;10.722;2023-05-19T03:34:32;7.50;99.90
14252;DHT22;7210;51.502;10.722;2023-05-19T03:37:00;7.50;99.90
14252;DHT22;7210;51.502;10.722;2023-05-19T03:39:27;7.60;99.90
14252;DHT22;7210;51.502;10.722;2023-05-19T03:41:55;7.60;99.90
14252;DHT22;7210;51.502;10.722;2023-05-19T03:44:23;7.50;99.90
14252;DHT22;7210;51.502;10.722;2023-05-19T03:46:55;7.50;99.90
14252;DHT22;7210;51.502;10.722;2023-05-19T03:49:45;7.40;99.90
14252;DHT22;7210;51.502;10.722;2023-05-19T03:52:43;7.50;99.90
14252;DHT22;7210;51.502;10.722;2023-05-19T03:55:27;7.50;99.90
14252;DHT22;7210;51.502;10.722;2023-05-19T03:57:55;7.40;99.90
14252;DHT22;7210;51.502;10.722;2023-05-19T04:00:24;7.40;99.90
14252;DHT22;7210;51.502;10.722;2023-05-19T04:02:51;7.30;99.90
14252;DHT22;7210;51.502;10.722;2023-05-19T04:05:25;7.30;99.90
14252;DHT22;7210;51.502;10.722;2023-05-19T04:08:01;7.40;99.90
14252;DHT22;7210;51.502;10.722;2023-05-19T04:10:28;7.50;99.90
14252;DHT22;7210;51.502;10.722;2023-05-19T04:13:01;7.50;99.90
14252;DHT22;7210;51.502;10.722;2023-05-19T04:15:32;7.50;99.90
14252;DHT22;7210;51.502;10.722;2023-05-19T04:17:59;7.60;99.90
14252;DHT22;7210;51.502;10.722;2023-05-19T04:20:27;7.60;99.90
14252;DHT22;7210;51.502;10.722;2023-05-19T04:22:54;7.60;99.90
14252;DHT22;7210;51.502;10.722;2023-05-19T04:25:21;7.60;99.90
14252;DHT22;7210;51.502;10.722;2023-05-19T04:27:55;7.60;99.90
14252;DHT22;7210;51.502;10.722;2023-05-19T04:30:25;7.60;99.90
14252;DHT22;7210;51.502;10.722;2023-05-19T04:32:55;7.70;99.90
14252;DHT22;7210;51.502;10.722;2023-05-19T04:35:37;7.70;99.90
14252;DHT22;7210;51.502;10.722;2023-05-19T04:38:05;7.90;99.90
14252;DHT22;7210;51.502;10.722;2023-05-19T04:40:34;7.80;99.90
14252;DHT22;7210;51.502;10.722;2023-05-19T04:43:01;7.90;99.90
14252;DHT22;7210;51.502;10.722;2023-05-19T04:45:29;7.90;99.90
14252;DHT22;7210;51.502;10.722;2023-05-19T04:48:00;7.90;99.90
14252;DHT22;7210;51.502;10.722;2023-05-19T04:50:28;8.00;99.90
14252;DHT22;7210;51.502;10.722;2023-05-19T04:52:57;8.00;99.90
14252;DHT22;7210;51.502;10.722;2023-05-19T04:55:37;8.10;99.90
14252;DHT22;7210;51.502;10.722;2023-05-19T04:58:04;8.20;99.90
14252;DHT22;7210;51.502;10.722;2023-05-19T05:00:32;8.20;99.90
14252;DHT22;7210;51.502;10.722;2023-05-19T05:03:05;8.30;99.90
14252;DHT22;7210;51.502;10.722;2023-05-19T05:05:33;8.30;99.90
14252;DHT22;7210;51.502;10.722;2023-05-19T05:08:25;8.30;99.90
14252;DHT22;7210;51.502;10.722;2023-05-19T05:10:55;8.50;99.90
14252;DHT22;7210;51.502;10.722;2023-05-19T05:13:31;8.50;99.90
14252;DHT22;7210;51.502;10.722;2023-05-19T05:16:01;8.60;99.90
14252;DHT22;7210;51.502;10.722;2023-05-19T05:18:33;8.60;99.90
14252;DHT22;7210;51.502;10.722;2023-05-19T05:21:04;8.60;99.90
14252;DHT22;7210;51.502;10.722;2023-05-19T05:23:34;8.60;99.90
14252;DHT22;7210;51.502;10.722;2023-05-19T05:26:19;8.70;99.90
14252;DHT22;7210;51.502;10.722;2023-05-19T05:28:49;8.70;99.90
14252;DHT22;7210;51.502;10.722;2023-05-19T05:31:17;8.80;99.90
14252;DHT22;7210;51.502;10.722;2023-05-19T05:33:45;8.90;99.90
14252;DHT22;7210;51.502;10.722;2023-05-19T05:36:19;8.90;99.90
14252;DHT22;7210;51.502;10.722;2023-05-19T05:38:49;9.00;99.90
14252;DHT22;7210;51.502;10.722;2023-05-19T05:41:17;9.10;99.90
14252;DHT22;7210;51.502;10.722;2023-05-19T05:43:49;9.20;99.90
14252;DHT22;7210;51.502;10.722;2023-05-19T05:46:17;9.30;99.90
14252;DHT22;7210;51.502;10.722;2023-05-19T05:48:47;9.30;99.90
14252;DHT22;7210;51.502;10.722;2023-05-19T05:51:15;9.40;99.90
14252;DHT22;7210;51.502;10.722;2023-05-19T05:53:44;9.50;99.90
14252;DHT22;7210;51.502;10.722;2023-05-19T05:56:17;9.60;99.90
14252;DHT22;7210;51.502;10.722;2023-05-19T05:58:49;9.80;99.90
14252;DHT22;7210;51.502;10.722;2023-05-19T06:01:19;10.00;1.00
14252;DHT22;7210;51.502;10.722;2023-05-19T06:03:48;10.20;1.00
14252;DHT22;7210;51.502;10.722;2023-05-19T06:06:31;10.50;1.00
14252;DHT22;7210;51.502;10.722;2023-05-19T06:09:00;10.70;1.00
14252;DHT22;7210;51.502;10.722;2023-05-19T06:11:28;10.90;1.00
14252;DHT22;7210;51.502;10.722;2023-05-19T06:13:57;11.20;1.00
14252;DHT22;7210;51.502;10.722;2023-05-19T06:16:55;11.50;1.00
14252;DHT22;7210;51.502;10.722;2023-05-19T06:19:23;11.90;1.00
14252;DHT22;7210;51.502;10.722;2023-05-19T06:21:51;12.20;1.00
14252;DHT22;7210;51.502;10.722;2023-05-19T06:24:19;12.40;1.00
14252;DHT22;7210;51.502;10.722;2023-05-19T06:27:01;12.70;1.00
14252;DHT22;7210;51.502;10.722;2023-05-19T06:29:28;13.10;1.00
14252;DHT22;7210;51.502;10.722;2023-05-19T06:32:00;13.30;1.00
14252;DHT22;7210;51.502;10.722;2023-05-19T06:34:30;13.60;1.00
14252;DHT22;7210;51.502;10.722;2023-05-19T06:36:57;13.80;1.00
14252;DHT22;7210;51.502;10.722;2023-05-19T06:39:27;13.90;1.00
14252;DHT22;7210;51.502;10.722;2023-05-19T06:41:54;14.10;1.00
14252;DHT22;7210;51.502;10.722;2023-05-19T06:44:43;14.10;1.00
14252;DHT22;7210;51.502;10.722;2023-05-19T06:47:11;14.30;1.00
14252;DHT22;7210;51.502;10.722;2023-05-19T06:49:40;14.40;1.00
14252;DHT22;7210;51.502;10.722;2023-05-19T06:52:07;14.50;1.00
14252;DHT22;7210;51.502;10.722;2023-05-19T06:54:35;14.50;1.00
14252;DHT22;7210;51.502;10.722;2023-05-19T06:57:03;14.60;1.00
14252;DHT22;7210;51.502;10.722;2023-05-19T06:59:31;14.60;1.00
14252;DHT22;7210;51.502;10.722;2023-05-19T07:02:13;14.60;1.00
14252;DHT22;7210;51.502;10.722;2023-05-19T07:04:41;14.50;1.00
14252;DHT22;7210;51.502;10.722;2023-05-19T07:07:11;14.40;1.00
14252;DHT22;7210;51.502;10.722;2023-05-19T07:09:38;14.40;1.00
14252;DHT22;7210;51.502;10.722;2023-05-19T07:12:07;14.40;1.00
14252;DHT22;7210;51.502;10.722;2023-05-19T07:14:43;14.50;1.00
14252;DHT22;7210;51.502;10.722;2023-05-19T07:17:11;14.40;1.00
14252;DHT22;7210;51.502;10.722;2023-05-19T07:19:44;14.40;1.00
14252;DHT22;7210;51.502;10.722;2023-05-19T07:22:11;14.50;1.00
14252;DHT22;7210;51.502;10.722;2023-05-19T07:24:38;14.50;1.00
14252;DHT22;7210;51.502;10.722;2023-05-19T07:27:05;14.60;1.00
14252;DHT22;7210;51.502;10.722;2023-05-19T07:29:33;14.60;1.00
14252;DHT22;7210;51.502;10.722;2023-05-19T07:32:07;14.80;1.00
14252;DHT22;7210;51.502;10.722;2023-05-19T07:34:37;14.80;1.00
14252;DHT22;7210;51.502;10.722;2023-05-19T07:37:05;14.80;1.00
14252;DHT22;7210;51.502;10.722;2023-05-19T07:39:33;14.90;1.00
14252;DHT22;7210;51.502;10.722;2023-05-19T07:42:01;15.00;1.00
14252;DHT22;7210;51.502;10.722;2023-05-19T07:44:37;15.00;1.00
14252;DHT22;7210;51.502;10.722;2023-05-19T07:47:04;15.00;1.00
14252;DHT22;7210;51.502;10.722;2023-05-19T07:49:32;15.00;1.00
14252;DHT22;7210;51.502;10.722;2023-05-19T07:52:08;15.10;1.00
14252;DHT22;7210;51.502;10.722;2023-05-19T07:54:43;15.20;1.00
14252;DHT22;7210;51.502;10.722;2023-05-19T07:57:11;15.20;1.00
14252;DHT22;7210;51.502;10.722;2023-05-19T07:59:39;15.30;1.00
14252;DHT22;7210;51.502;10.722;2023-05-19T08:02:06;15.40;1.00
14252;DHT22;7210;51.502;10.722;2023-05-19T08:04:37;15.40;1.00
14252;DHT22;7210;51.502;10.722;2023-05-19T08:07:08;15.40;1.00
14252;DHT22;7210;51.502;10.722;2023-05-19T08:09:36;15.50;1.00
14252;DHT22;7210;51.502;10.722;2023-05-19T08:12:13;15.60;1.00
14252;DHT22;7210;51.502;10.722;2023-05-19T08:14:43;15.70;1.00
14252;DHT22;7210;51.502;10.722;2023-05-19T08:17:10;15.70;1.00
14252;DHT22;7210;51.502;10.722;2023-05-19T08:19:37;15.70;1.00
14252;DHT22;7210;51.502;10.722;2023-05-19T08:22:04;15.80;1.00
14252;DHT22;7210;51.502;10.722;2023-05-19T08:24:33;15.90;1.00
14252;DHT22;7210;51.502;10.722;2023-05-19T08:27:00;16.10;1.00
14252;DHT22;7210;51.502;10.722;2023-05-19T08:29:37;16.20;1.00
14252;DHT22;7210;51.502;10.722;2023-05-19T08:32:04;16.10;1.00
14252;DHT22;7210;51.502;10.722;2023-05-19T08:34:32;16.00;1.00
14252;DHT22;7210;51.502;10.722;2023-05-19T08:37:01;15.90;1.00
14252;DHT22;7210;51.502;10.722;2023-05-19T08:39:32;15.90;1.00
14252;DHT22;7210;51.502;10.722;2023-05-19T08:42:00;15.80;1.00
14252;DHT22;7210;51.502;10.722;2023-05-19T08:44:31;15.80;1.00
14252;DHT22;7210;51.502;10.722;2023-05-19T08:47:02;16.00;1.00
14252;DHT22;7210;51.502;10.722;2023-05-19T08:49:34;16.20;1.00
14252;DHT22;7210;51.502;10.722;2023-05-19T08:52:15;16.40;1.00
14252;DHT22;7210;51.502;10.722;2023-05-19T08:55:02;16.80;1.00
14252;DHT22;7210;51.502;10.722;2023-05-19T08:57:32;16.90;1.00
14252;DHT22;7210;51.502;10.722;2023-05-19T09:00:01;17.00;1.00
14252;DHT22;7210;51.502;10.722;2023-05-19T09:02:37;17.10;1.00
14252;DHT22;7210;51.502;10.722;2023-05-19T09:05:06;17.10;1.00
14252;DHT22;7210;51.502;10.722;2023-05-19T09:07:35;17.20;1.00
14252;DHT22;7210;51.502;10.722;2023-05-19T09:10:05;17.40;1.00
14252;DHT22;7210;51.502;10.722;2023-05-19T09:12:37;17.40;1.00
14252;DHT22;7210;51.502;10.722;2023-05-19T09:15:08;17.40;1.00
14252;DHT22;7210;51.502;10.722;2023-05-19T09:17:36;17.30;1.00
14252;DHT22;7210;51.502;10.722;2023-05-19T09:20:19;17.40;1.00
14252;DHT22;7210;51.502;10.722;2023-05-19T09:22:46;17.70;1.00
14252;DHT22;7210;51.502;10.722;2023-05-19T09:25:26;17.90;1.00
14252;DHT22;7210;51.502;10.722;2023-05-19T09:27:55;18.00;1.00
14252;DHT22;7210;51.502;10.722;2023-05-19T09:30:23;18.10;1.00
14252;DHT22;7210;51.502;10.722;2023-05-19T09:32:50;18.10;1.00
14252;DHT22;7210;51.502;10.722;2023-05-19T09:35:18;18.00;1.00
14252;DHT22;7210;51.502;10.722;2023-05-19T09:37:49;18.00;1.00
14252;DHT22;7210;51.502;10.722;2023-05-19T09:40:16;18.00;1.00
14252;DHT22;7210;51.502;10.722;2023-05-19T09:42:45;17.90;1.00
14252;DHT22;7210;51.502;10.722;2023-05-19T09:45:13;18.00;1.00
14252;DHT22;7210;51.502;10.722;2023-05-19T09:47:43;18.00;1.00
14252;DHT22;7210;51.502;10.722;2023-05-19T09:50:11;18.00;1.00
14252;DHT22;7210;51.502;10.722;2023-05-19T09:52:49;18.10;1.00
14252;DHT22;7210;51.502;10.722;2023-05-19T09:55:19;18.30;1.00
14252;DHT22;7210;51.502;10.722;2023-05-19T09:57:56;18.20;1.00
14252;DHT22;7210;51.502;10.722;2023-05-19T10:00:25;18.10;1.00
14252;DHT22;7210;51.502;10.722;2023-05-19T10:02:54;18.00;1.00
14252;DHT22;7210;51.502;10.722;2023-05-19T10:05:22;18.10;1.00
14252;DHT22;7210;51.502;10.722;2023-05-19T10:07:52;18.10;1.00
14252;DHT22;7210;51.502;10.722;2023-05-19T10:10:20;18.10;1.00
14252;DHT22;7210;51.502;10.722;2023-05-19T10:12:48;18.00;1.00
14252;DHT22;7210;51.502;10.722;2023-05-19T10:15:17;17.90;1.00
14252;DHT22;7210;51.502;10.722;2023-05-19T10:17:45;17.90;1.00
14252;DHT22;7210;51.502;10.722;2023-05-19T10:20:14;18.00;1.00
14252;DHT22;7210;51.502;10.722;2023-05-19T10:22:45;18.10;1.00
14252;DHT22;7210;51.502;10.722;2023-05-19T10:25:19;18.30;1.00
14252;DHT22;7210;51.502;10.722;2023-05-19T10:27:57;18.30;1.00
14252;DHT22;7210;51.502;10.722;2023-05-19T10:30:40;18.30;1.00
14252;DHT22;7210;51.502;10.722;2023-05-19T10:33:12;18.60;1.00
14252;DHT22;7210;51.502;10.722;2023-05-19T10:36:04;18.80;1.00
14252;DHT22;7210;51.502;10.722;2023-05-19T10:38:55;19.00;1.00
14252;DHT22;7210;51.502;10.722;2023-05-19T10:41:37;19.00;1.00
14252;DHT22;7210;51.502;10.722;2023-05-19T10:44:15;19.10;1.00
14252;DHT22;7210;51.502;10.722;2023-05-19T10:46:50;19.40;1.00
14252;DHT22;7210;51.502;10.722;2023-05-19T10:49:21;19.80;1.00
14252;DHT22;7210;51.502;10.722;2023-05-19T10:51:51;19.90;1.00
14252;DHT22;7210;51.502;10.722;2023-05-19T10:54:40;20.10;1.00
14252;DHT22;7210;51.502;10.722;2023-05-19T10:57:13;20.30;1.00
14252;DHT22;7210;51.502;10.722;2023-05-19T10:59:55;20.50;1.00
14252;DHT22;7210;51.502;10.722;2023-05-19T11:02:50;20.80;1.00
14252;DHT22;7210;51.502;10.722;2023-05-19T11:05:29;20.80;1.00
14252;DHT22;7210;51.502;10.722;2023-05-19T11:07:58;20.70;1.00
14252;DHT22;7210;51.502;10.722;2023-05-19T11:10:27;20.80;1.00
14252;DHT22;7210;51.502;10.722;2023-05-19T11:12:56;21.20;1.00
14252;DHT22;7210;51.502;10.722;2023-05-19T11:15:25;21.20;1.00
14252;DHT22;7210;51.502;10.722;2023-05-19T11:17:56;21.40;1.00
14252;DHT22;7210;51.502;10.722;2023-05-19T11:20:31;21.50;1.00
14252;DHT22;7210;51.502;10.722;2023-05-19T11:23:06;21.50;1.00
14252;DHT22;7210;51.502;10.722;2023-05-19T11:25:44;21.60;1.00
14252;DHT22;7210;51.502;10.722;2023-05-19T11:28:15;21.50;1.00
14252;DHT22;7210;51.502;10.722;2023-05-19T11:30:45;21.60;1.00
14252;DHT22;7210;51.502;10.722;2023-05-19T11:33:16;21.70;1.00
14252;DHT22;7210;51.502;10.722;2023-05-19T11:35:49;21.90;1.00
14252;DHT22;7210;51.502;10.722;2023-05-19T11:38:19;22.00;1.00
14252;DHT22;7210;51.502;10.722;2023-05-19T11:40:51;22.10;1.00
14252;DHT22;7210;51.502;10.722;2023-05-19T11:43:31;22.00;1.00
14252;DHT22;7210;51.502;10.722;2023-05-19T11:45:58;22.10;1.00
14252;DHT22;7210;51.502;10.722;2023-05-19T11:48:28;22.10;1.00
14252;DHT22;7210;51.502;10.722;2023-05-19T11:51:07;21.60;1.00
14252;DHT22;7210;51.502;10.722;2023-05-19T11:53:43;21.20;1.00
14252;DHT22;7210;51.502;10.722;2023-05-19T11:56:10;21.00;1.00
14252;DHT22;7210;51.502;10.722;2023-05-19T11:58:52;21.00;1.00
14252;DHT22;7210;51.502;10.722;2023-05-19T12:01:22;20.90;1.00
14252;DHT22;7210;51.502;10.722;2023-05-19T12:03:52;20.80;1.00
14252;DHT22;7210;51.502;10.722;2023-05-19T12:06:20;21.00;1.00
14252;DHT22;7210;51.502;10.722;2023-05-19T12:08:50;20.90;1.00
14252;DHT22;7210;51.502;10.722;2023-05-19T12:11:17;20.80;1.00
14252;DHT22;7210;51.502;10.722;2023-05-19T12:13:46;20.70;1.00
14252;DHT22;7210;51.502;10.722;2023-05-19T12:16:18;20.60;1.00
14252;DHT22;7210;51.502;10.722;2023-05-19T12:18:45;20.70;1.00
14252;DHT22;7210;51.502;10.722;2023-05-19T12:21:14;20.80;1.00
14252;DHT22;7210;51.502;10.722;2023-05-19T12:23:42;21.10;1.00
14252;DHT22;7210;51.502;10.722;2023-05-19T12:26:10;21.20;1.00
14252;DHT22;7210;51.502;10.722;2023-05-19T12:28:37;21.00;1.00
14252;DHT22;7210;51.502;10.722;2023-05-19T12:31:05;21.10;1.00
14252;DHT22;7210;51.502;10.722;2023-05-19T12:33:32;21.10;1.00
14252;DHT22;7210;51.502;10.722;2023-05-19T12:36:00;21.20;1.00
14252;DHT22;7210;51.502;10.722;2023-05-19T12:38:38;21.20;1.00
14252;DHT22;7210;51.502;10.722;2023-05-19T12:41:13;21.40;1.00
14252;DHT22;7210;51.502;10.722;2023-05-19T12:43:41;21.60;1.00
14252;DHT22;7210;51.502;10.722;2023-05-19T12:46:09;21.60;1.00
14252;DHT22;7210;51.502;10.722;2023-05-19T12:48:39;21.20;1.00
14252;DHT22;7210;51.502;10.722;2023-05-19T12:51:07;21.10;1.00
14252;DHT22;7210;51.502;10.722;2023-05-19T12:53:35;21.10;1.00
14252;DHT22;7210;51.502;10.722;2023-05-19T12:56:10;21.20;1.00
14252;DHT22;7210;51.502;10.722;2023-05-19T12:58:43;21.30;1.00
14252;DHT22;7210;51.502;10.722;2023-05-19T13:01:15;21.40;1.00
14252;DHT22;7210;51.502;10.722;2023-05-19T13:03:55;21.60;1.00
14252;DHT22;7210;51.502;10.722;2023-05-19T13:06:25;21.70;1.00
14252;DHT22;7210;51.502;10.722;2023-05-19T13:08:52;21.90;1.00
14252;DHT22;7210;51.502;10.722;2023-05-19T13:11:38;22.00;1.00
14252;DHT22;7210;51.502;10.722;2023-05-19T13:14:13;22.00;1.00
14252;DHT22;7210;51.502;10.722;2023-05-19T13:16:41;21.70;1.00
14252;DHT22;7210;51.502;10.722;2023-05-19T13:19:09;21.50;1.00
14252;DHT22;7210;51.502;10.722;2023-05-19T13:21:37;21.60;1.00
14252;DHT22;7210;51.502;10.722;2023-05-19T13:24:24;21.60;1.00
14252;DHT22;7210;51.502;10.722;2023-05-19T13:26:53;21.40;1.00
14252;DHT22;7210;51.502;10.722;2023-05-19T13:29:20;21.20;1.00
14252;DHT22;7210;51.502;10.722;2023-05-19T13:31:47;21.10;1.00
14252;DHT22;7210;51.502;10.722;2023-05-19T13:34:14;21.20;1.00
14252;DHT22;7210;51.502;10.722;2023-05-19T13:36:44;21.10;1.00
14252;DHT22;7210;51.502;10.722;2023-05-19T13:39:19;21.00;1.00
14252;DHT22;7210;51.502;10.722;2023-05-19T13:41:58;21.10;1.00
14252;DHT22;7210;51.502;10.722;2023-05-19T13:44:25;21.20;1.00
14252;DHT22;7210;51.502;10.722;2023-05-19T13:46:52;21.50;1.00
14252;DHT22;7210;51.502;10.722;2023-05-19T13:49:19;21.70;1.00
14252;DHT22;7210;51.502;10.722;2023-05-19T13:51:47;21.70;1.00
14252;DHT22;7210;51.502;10.722;2023-05-19T13:54:25;21.80;1.00
14252;DHT22;7210;51.502;10.722;2023-05-19T13:56:52;21.80;1.00
14252;DHT22;7210;51.502;10.722;2023-05-19T13:59:32;21.70;1.00
14252;DHT22;7210;51.502;10.722;2023-05-19T14:02:00;21.60;1.00
14252;DHT22;7210;51.502;10.722;2023-05-19T14:04:31;21.70;1.00
14252;DHT22;7210;51.502;10.722;2023-05-19T14:07:23;21.90;1.00
14252;DHT22;7210;51.502;10.722;2023-05-19T14:09:51;21.80;1.00
14252;DHT22;7210;51.502;10.722;2023-05-19T14:12:18;21.70;1.00
14252;DHT22;7210;51.502;10.722;2023-05-19T14:14:50;21.60;1.00
14252;DHT22;7210;51.502;10.722;2023-05-19T14:17:19;21.70;1.00
14252;DHT22;7210;51.502;10.722;2023-05-19T14:19:46;21.70;1.00
14252;DHT22;7210;51.502;10.722;2023-05-19T14:22:13;21.80;1.00
14252;DHT22;7210;51.502;10.722;2023-05-19T14:24:41;21.70;1.00
14252;DHT22;7210;51.502;10.722;2023-05-19T14:27:13;21.90;1.00
14252;DHT22;7210;51.502;10.722;2023-05-19T14:29:43;21.80;1.00
14252;DHT22;7210;51.502;10.722;2023-05-19T14:32:12;21.80;1.00
14252;DHT22;7210;51.502;10.722;2023-05-19T14:34:55;21.80;1.00
14252;DHT22;7210;51.502;10.722;2023-05-19T14:37:22;22.00;1.00
14252;DHT22;7210;51.502;10.722;2023-05-19T14:39:51;21.80;1.00
14252;DHT22;7210;51.502;10.722;2023-05-19T14:42:18;21.80;1.00
14252;DHT22;7210;51.502;10.722;2023-05-19T14:44:45;21.80;1.00
14252;DHT22;7210;51.502;10.722;2023-05-19T14:47:14;21.80;1.00
14252;DHT22;7210;51.502;10.722;2023-05-19T14:49:41;21.70;1.00
14252;DHT22;7210;51.502;10.722;2023-05-19T14:52:08;21.70;1.00
14252;DHT22;7210;51.502;10.722;2023-05-19T14:54:36;21.80;1.00
14252;DHT22;7210;51.502;10.722;2023-05-19T14:57:03;21.80;1.00
14252;DHT22;7210;51.502;10.722;2023-05-19T14:59:35;21.90;1.00
14252;DHT22;7210;51.502;10.722;2023-05-19T15:02:03;21.90;1.00
14252;DHT22;7210;51.502;10.722;2023-05-19T15:04:32;21.90;1.00
14252;DHT22;7210;51.502;10.722;2023-05-19T15:07:13;21.80;1.00
14252;DHT22;7210;51.502;10.722;2023-05-19T15:09:40;21.70;1.00
14252;DHT22;7210;51.502;10.722;2023-05-19T15:12:08;21.70;1.00
14252;DHT22;7210;51.502;10.722;2023-05-19T15:14:43;21.50;1.00
14252;DHT22;7210;51.502;10.722;2023-05-19T15:17:13;21.40;1.00
14252;DHT22;7210;51.502;10.722;2023-05-19T15:19:41;21.50;1.00
14252;DHT22;7210;51.502;10.722;2023-05-19T15:22:08;21.30;1.00
14252;DHT22;7210;51.502;10.722;2023-05-19T15:24:36;21.30;1.00
14252;DHT22;7210;51.502;10.722;2023-05-19T15:27:04;21.20;1.00
14252;DHT22;7210;51.502;10.722;2023-05-19T15:29:31;21.10;1.00
14252;DHT22;7210;51.502;10.722;2023-05-19T15:32:01;21.20;1.00
14252;DHT22;7210;51.502;10.722;2023-05-19T15:34:31;21.30;1.00
14252;DHT22;7210;51.502;10.722;2023-05-19T15:36:59;21.50;1.00
14252;DHT22;7210;51.502;10.722;2023-05-19T15:39:28;21.50;1.00
14252;DHT22;7210;51.502;10.722;2023-05-19T15:41:58;21.50;1.00
14252;DHT22;7210;51.502;10.722;2023-05-19T15:44:25;21.50;1.00
14252;DHT22;7210;51.502;10.722;2023-05-19T15:46:52;21.60;1.00
14252;DHT22;7210;51.502;10.722;2023-05-19T15:49:19;21.70;1.00
14252;DHT22;7210;51.502;10.722;2023-05-19T15:51:49;21.70;1.00
14252;DHT22;7210;51.502;10.722;2023-05-19T15:54:20;21.60;1.00
14252;DHT22;7210;51.502;10.722;2023-05-19T15:56:47;21.50;1.00
14252;DHT22;7210;51.502;10.722;2023-05-19T15:59:31;21.40;1.00
14252;DHT22;7210;51.502;10.722;2023-05-19T16:01:58;21.20;1.00
14252;DHT22;7210;51.502;10.722;2023-05-19T16:04:31;21.20;1.00
14252;DHT22;7210;51.502;10.722;2023-05-19T16:06:58;21.00;1.00
14252;DHT22;7210;51.502;10.722;2023-05-19T16:09:26;20.90;1.00
14252;DHT22;7210;51.502;10.722;2023-05-19T16:12:01;20.60;1.00
14252;DHT22;7210;51.502;10.722;2023-05-19T16:14:28;20.50;1.00
14252;DHT22;7210;51.502;10.722;2023-05-19T16:17:00;20.40;1.00
14252;DHT22;7210;51.502;10.722;2023-05-19T16:19:31;20.30;1.00